sensor_id;sensor_type;location;lat;lon;timestamp;P1;durP1;ratioP1;P2;durP2;ratioP2
70132;SDS011;57495;49.922;7.966;2024-03-08T00:00:01;19.42;;;11.13;;
70132;SDS011;57495;49.922;7.966;2024-03-08T00:02:09;20.77;;;10.30;;
70132;SDS011;57495;49.922;7.966;2024-03-08T00:04:10;17.88;;;10.30;;
70132;SDS011;57495;49.922;7.966;2024-03-08T00:06:12;19.13;;;9.68;;
70132;SDS011;57495;49.922;7.966;2024-03-08T00:08:13;19.60;;;10.10;;
70132;SDS011;57495;49.922;7.966;2024-03-08T00:10:15;22.00;;;11.23;;
70132;SDS011;57495;49.922;7.966;2024-03-08T00:12:16;22.63;;;10.70;;
70132;SDS011;57495;49.922;7.966;2024-03-08T00:14:18;21.02;;;10.65;;
70132;SDS011;57495;49.922;7.966;2024-03-08T00:16:20;19.83;;;10.38;;
70132;SDS011;57495;49.922;7.966;2024-03-08T00:18:23;22.50;;;10.75;;
70132;SDS011;57495;49.922;7.966;2024-03-08T00:20:24;21.45;;;10.88;;
70132;SDS011;57495;49.922;7.966;2024-03-08T00:22:26;20.92;;;11.50;;
70132;SDS011;57495;49.922;7.966;2024-03-08T00:24:27;24.40;;;12.05;;
70132;SDS011;57495;49.922;7.966;2024-03-08T00:26:30;20.48;;;11.05;;
70132;SDS011;57495;49.922;7.966;2024-03-08T00:28:33;20.95;;;11.55;;
70132;SDS011;57495;49.922;7.966;2024-03-08T00:30:34;23.67;;;12.00;;
70132;SDS011;57495;49.922;7.966;2024-03-08T00:32:36;19.05;;;11.07;;
70132;SDS011;57495;49.922;7.966;2024-03-08T00:34:37;23.33;;;11.90;;
70132;SDS011;57495;49.922;7.966;2024-03-08T00:36:39;24.55;;;12.20;;
70132;SDS011;57495;49.922;7.966;2024-03-08T00:38:40;19.73;;;10.63;;
70132;SDS011;57495;49.922;7.966;2024-03-08T00:40:42;23.10;;;11.90;;
70132;SDS011;57495;49.922;7.966;2024-03-08T00:42:44;21.35;;;11.35;;
70132;SDS011;57495;49.922;7.966;2024-03-08T00:44:47;22.27;;;11.02;;
70132;SDS011;57495;49.922;7.966;2024-03-08T00:46:48;22.10;;;11.65;;
70132;SDS011;57495;49.922;7.966;2024-03-08T00:48:49;20.55;;;11.27;;
70132;SDS011;57495;49.922;7.966;2024-03-08T00:50:51;21.92;;;10.50;;
70132;SDS011;57495;49.922;7.966;2024-03-08T00:52:52;20.60;;;10.57;;
70132;SDS011;57495;49.922;7.966;2024-03-08T00:54:54;21.65;;;11.27;;
70132;SDS011;57495;49.922;7.966;2024-03-08T00:56:55;19.50;;;10.82;;
70132;SDS011;57495;49.922;7.966;2024-03-08T00:58:58;20.52;;;10.82;;
70132;SDS011;57495;49.922;7.966;2024-03-08T01:01:00;21.00;;;10.45;;
70132;SDS011;57495;49.922;7.966;2024-03-08T01:03:01;19.00;;;11.00;;
70132;SDS011;57495;49.922;7.966;2024-03-08T01:05:03;23.25;;;11.13;;
70132;SDS011;57495;49.922;7.966;2024-03-08T01:07:07;20.30;;;10.77;;
70132;SDS011;57495;49.922;7.966;2024-03-08T01:09:08;21.70;;;11.77;;
70132;SDS011;57495;49.922;7.966;2024-03-08T01:11:09;22.88;;;11.88;;
70132;SDS011;57495;49.922;7.966;2024-03-08T01:13:11;18.02;;;10.52;;
70132;SDS011;57495;49.922;7.966;2024-03-08T01:15:14;19.92;;;10.25;;
70132;SDS011;57495;49.922;7.966;2024-03-08T01:17:14;20.77;;;11.18;;
70132;SDS011;57495;49.922;7.966;2024-03-08T01:19:16;22.15;;;11.00;;
70132;SDS011;57495;49.922;7.966;2024-03-08T01:21:17;20.33;;;10.73;;
70132;SDS011;57495;49.922;7.966;2024-03-08T01:23:18;22.63;;;10.98;;
70132;SDS011;57495;49.922;7.966;2024-03-08T01:25:20;22.95;;;11.13;;
70132;SDS011;57495;49.922;7.966;2024-03-08T01:27:21;21.90;;;11.05;;
70132;SDS011;57495;49.922;7.966;2024-03-08T01:29:24;22.30;;;11.02;;
70132;SDS011;57495;49.922;7.966;2024-03-08T01:31:27;22.75;;;11.70;;
70132;SDS011;57495;49.922;7.966;2024-03-08T01:33:29;21.25;;;10.80;;
70132;SDS011;57495;49.922;7.966;2024-03-08T01:35:31;22.70;;;11.25;;
70132;SDS011;57495;49.922;7.966;2024-03-08T01:37:33;20.58;;;10.98;;
70132;SDS011;57495;49.922;7.966;2024-03-08T01:39:34;20.80;;;11.90;;
70132;SDS011;57495;49.922;7.966;2024-03-08T01:41:35;19.55;;;10.98;;
70132;SDS011;57495;49.922;7.966;2024-03-08T01:43:37;22.27;;;10.35;;
70132;SDS011;57495;49.922;7.966;2024-03-08T01:45:38;21.60;;;11.73;;
70132;SDS011;57495;49.922;7.966;2024-03-08T01:47:42;22.25;;;11.68;;
70132;SDS011;57495;49.922;7.966;2024-03-08T01:49:42;21.50;;;11.63;;
70132;SDS011;57495;49.922;7.966;2024-03-08T01:51:44;20.27;;;11.10;;
70132;SDS011;57495;49.922;7.966;2024-03-08T01:53:46;23.15;;;11.93;;
70132;SDS011;57495;49.922;7.966;2024-03-08T01:55:49;23.90;;;11.35;;
70132;SDS011;57495;49.922;7.966;2024-03-08T01:57:53;21.05;;;10.73;;
70132;SDS011;57495;49.922;7.966;2024-03-08T01:59:54;22.50;;;11.82;;
70132;SDS011;57495;49.922;7.966;2024-03-08T02:01:57;21.05;;;10.57;;
70132;SDS011;57495;49.922;7.966;2024-03-08T02:04:04;19.58;;;10.55;;
70132;SDS011;57495;49.922;7.966;2024-03-08T02:06:07;18.98;;;10.05;;
70132;SDS011;57495;49.922;7.966;2024-03-08T02:08:10;20.85;;;11.27;;
70132;SDS011;57495;49.922;7.966;2024-03-08T02:10:14;22.73;;;11.80;;
70132;SDS011;57495;49.922;7.966;2024-03-08T02:12:15;22.85;;;11.60;;
70132;SDS011;57495;49.922;7.966;2024-03-08T02:14:17;20.90;;;11.02;;
70132;SDS011;57495;49.922;7.966;2024-03-08T02:16:20;21.63;;;11.45;;
70132;SDS011;57495;49.922;7.966;2024-03-08T02:18:21;21.58;;;10.65;;
70132;SDS011;57495;49.922;7.966;2024-03-08T02:22:32;25.13;;;11.30;;
70132;SDS011;57495;49.922;7.966;2024-03-08T02:24:34;21.25;;;11.32;;
70132;SDS011;57495;49.922;7.966;2024-03-08T02:26:35;24.17;;;11.50;;
70132;SDS011;57495;49.922;7.966;2024-03-08T02:28:37;21.60;;;11.32;;
70132;SDS011;57495;49.922;7.966;2024-03-08T02:30:39;24.02;;;12.15;;
70132;SDS011;57495;49.922;7.966;2024-03-08T02:32:41;23.15;;;11.52;;
70132;SDS011;57495;49.922;7.966;2024-03-08T02:34:42;21.92;;;10.90;;
70132;SDS011;57495;49.922;7.966;2024-03-08T02:36:45;22.83;;;11.75;;
70132;SDS011;57495;49.922;7.966;2024-03-08T02:38:47;22.65;;;11.48;;
70132;SDS011;57495;49.922;7.966;2024-03-08T02:40:49;24.92;;;12.00;;
70132;SDS011;57495;49.922;7.966;2024-03-08T02:42:52;23.63;;;12.35;;
70132;SDS011;57495;49.922;7.966;2024-03-08T02:44:53;23.05;;;11.52;;
70132;SDS011;57495;49.922;7.966;2024-03-08T02:46:55;25.10;;;12.07;;
70132;SDS011;57495;49.922;7.966;2024-03-08T02:48:56;23.73;;;11.45;;
70132;SDS011;57495;49.922;7.966;2024-03-08T02:50:57;23.50;;;11.18;;
70132;SDS011;57495;49.922;7.966;2024-03-08T02:53:00;23.20;;;11.68;;
70132;SDS011;57495;49.922;7.966;2024-03-08T02:55:02;22.63;;;10.90;;
70132;SDS011;57495;49.922;7.966;2024-03-08T02:57:05;20.70;;;10.30;;
70132;SDS011;57495;49.922;7.966;2024-03-08T02:59:07;22.55;;;11.13;;
70132;SDS011;57495;49.922;7.966;2024-03-08T03:01:09;21.35;;;11.32;;
70132;SDS011;57495;49.922;7.966;2024-03-08T03:03:10;21.15;;;11.23;;
70132;SDS011;57495;49.922;7.966;2024-03-08T03:05:11;20.83;;;11.15;;
70132;SDS011;57495;49.922;7.966;2024-03-08T03:07:14;23.83;;;10.20;;
70132;SDS011;57495;49.922;7.966;2024-03-08T03:09:16;24.52;;;11.27;;
70132;SDS011;57495;49.922;7.966;2024-03-08T03:11:23;23.92;;;11.40;;
70132;SDS011;57495;49.922;7.966;2024-03-08T03:13:24;20.67;;;10.85;;
70132;SDS011;57495;49.922;7.966;2024-03-08T03:15:25;22.50;;;11.33;;
70132;SDS011;57495;49.922;7.966;2024-03-08T03:17:26;25.88;;;11.13;;
70132;SDS011;57495;49.922;7.966;2024-03-08T03:19:27;21.43;;;11.13;;
70132;SDS011;57495;49.922;7.966;2024-03-08T03:21:29;24.33;;;10.98;;
70132;SDS011;57495;49.922;7.966;2024-03-08T03:23:32;22.67;;;10.68;;
70132;SDS011;57495;49.922;7.966;2024-03-08T03:25:34;23.88;;;11.15;;
70132;SDS011;57495;49.922;7.966;2024-03-08T03:27:38;25.98;;;11.65;;
70132;SDS011;57495;49.922;7.966;2024-03-08T03:29:40;20.95;;;10.80;;
70132;SDS011;57495;49.922;7.966;2024-03-08T03:31:45;23.27;;;10.93;;
70132;SDS011;57495;49.922;7.966;2024-03-08T03:33:46;23.10;;;11.20;;
70132;SDS011;57495;49.922;7.966;2024-03-08T03:35:48;23.73;;;11.32;;
70132;SDS011;57495;49.922;7.966;2024-03-08T03:37:49;22.35;;;10.90;;
70132;SDS011;57495;49.922;7.966;2024-03-08T03:40:01;25.08;;;11.32;;
70132;SDS011;57495;49.922;7.966;2024-03-08T03:42:04;23.15;;;12.18;;
70132;SDS011;57495;49.922;7.966;2024-03-08T03:44:06;22.33;;;10.18;;
70132;SDS011;57495;49.922;7.966;2024-03-08T03:46:07;20.67;;;10.20;;
70132;SDS011;57495;49.922;7.966;2024-03-08T03:48:10;21.95;;;10.52;;
70132;SDS011;57495;49.922;7.966;2024-03-08T03:50:12;23.17;;;12.05;;
70132;SDS011;57495;49.922;7.966;2024-03-08T03:52:13;22.65;;;10.50;;
70132;SDS011;57495;49.922;7.966;2024-03-08T03:54:15;21.15;;;11.55;;
70132;SDS011;57495;49.922;7.966;2024-03-08T03:56:17;24.45;;;11.57;;
70132;SDS011;57495;49.922;7.966;2024-03-08T03:58:19;24.55;;;11.25;;
70132;SDS011;57495;49.922;7.966;2024-03-08T04:00:22;23.52;;;10.75;;
70132;SDS011;57495;49.922;7.966;2024-03-08T04:02:24;24.23;;;11.43;;
70132;SDS011;57495;49.922;7.966;2024-03-08T04:04:25;23.17;;;10.88;;
70132;SDS011;57495;49.922;7.966;2024-03-08T04:06:27;24.33;;;11.23;;
70132;SDS011;57495;49.922;7.966;2024-03-08T04:08:28;23.02;;;11.20;;
70132;SDS011;57495;49.922;7.966;2024-03-08T04:10:29;20.13;;;9.93;;
70132;SDS011;57495;49.922;7.966;2024-03-08T04:12:30;25.40;;;12.20;;
70132;SDS011;57495;49.922;7.966;2024-03-08T04:14:33;21.98;;;10.93;;
70132;SDS011;57495;49.922;7.966;2024-03-08T04:16:35;21.35;;;11.30;;
70132;SDS011;57495;49.922;7.966;2024-03-08T04:18:36;23.80;;;12.05;;
70132;SDS011;57495;49.922;7.966;2024-03-08T04:20:37;22.70;;;11.07;;
70132;SDS011;57495;49.922;7.966;2024-03-08T04:22:40;22.57;;;11.13;;
70132;SDS011;57495;49.922;7.966;2024-03-08T04:24:41;23.83;;;10.98;;
70132;SDS011;57495;49.922;7.966;2024-03-08T04:26:42;25.50;;;11.67;;
70132;SDS011;57495;49.922;7.966;2024-03-08T04:28:43;19.95;;;10.13;;
70132;SDS011;57495;49.922;7.966;2024-03-08T04:30:46;24.77;;;12.43;;
70132;SDS011;57495;49.922;7.966;2024-03-08T04:32:47;23.23;;;11.93;;
70132;SDS011;57495;49.922;7.966;2024-03-08T04:34:49;27.42;;;11.57;;
70132;SDS011;57495;49.922;7.966;2024-03-08T04:36:50;25.63;;;11.67;;
70132;SDS011;57495;49.922;7.966;2024-03-08T04:38:52;23.10;;;11.20;;
70132;SDS011;57495;49.922;7.966;2024-03-08T04:40:53;24.85;;;11.73;;
70132;SDS011;57495;49.922;7.966;2024-03-08T04:42:54;23.10;;;10.90;;
70132;SDS011;57495;49.922;7.966;2024-03-08T04:44:56;23.20;;;11.65;;
70132;SDS011;57495;49.922;7.966;2024-03-08T04:46:58;24.63;;;11.43;;
70132;SDS011;57495;49.922;7.966;2024-03-08T04:49:00;25.35;;;11.75;;
70132;SDS011;57495;49.922;7.966;2024-03-08T04:51:02;24.93;;;11.00;;
70132;SDS011;57495;49.922;7.966;2024-03-08T04:53:04;23.75;;;11.10;;
70132;SDS011;57495;49.922;7.966;2024-03-08T04:55:08;23.40;;;10.95;;
70132;SDS011;57495;49.922;7.966;2024-03-08T04:57:09;21.55;;;11.40;;
70132;SDS011;57495;49.922;7.966;2024-03-08T04:59:11;27.38;;;12.45;;
70132;SDS011;57495;49.922;7.966;2024-03-08T05:01:11;24.33;;;11.87;;
70132;SDS011;57495;49.922;7.966;2024-03-08T05:03:14;26.08;;;12.00;;
70132;SDS011;57495;49.922;7.966;2024-03-08T05:05:15;25.50;;;11.37;;
70132;SDS011;57495;49.922;7.966;2024-03-08T05:07:16;21.33;;;10.10;;
70132;SDS011;57495;49.922;7.966;2024-03-08T05:09:19;28.80;;;12.13;;
70132;SDS011;57495;49.922;7.966;2024-03-08T05:11:20;24.55;;;12.32;;
70132;SDS011;57495;49.922;7.966;2024-03-08T05:13:22;22.65;;;11.10;;
70132;SDS011;57495;49.922;7.966;2024-03-08T05:15:23;24.70;;;11.60;;
70132;SDS011;57495;49.922;7.966;2024-03-08T05:17:25;25.02;;;12.05;;
70132;SDS011;57495;49.922;7.966;2024-03-08T05:19:27;26.13;;;12.45;;
70132;SDS011;57495;49.922;7.966;2024-03-08T05:21:30;23.70;;;11.07;;
70132;SDS011;57495;49.922;7.966;2024-03-08T05:23:31;31.50;;;11.65;;
70132;SDS011;57495;49.922;7.966;2024-03-08T05:25:34;24.37;;;11.53;;
70132;SDS011;57495;49.922;7.966;2024-03-08T05:27:36;27.85;;;12.18;;
70132;SDS011;57495;49.922;7.966;2024-03-08T05:29:36;26.10;;;12.73;;
70132;SDS011;57495;49.922;7.966;2024-03-08T05:31:41;24.25;;;11.77;;
70132;SDS011;57495;49.922;7.966;2024-03-08T05:33:46;24.80;;;12.63;;
70132;SDS011;57495;49.922;7.966;2024-03-08T05:35:49;22.50;;;11.25;;
70132;SDS011;57495;49.922;7.966;2024-03-08T05:37:50;25.85;;;11.73;;
70132;SDS011;57495;49.922;7.966;2024-03-08T05:39:51;24.77;;;11.53;;
70132;SDS011;57495;49.922;7.966;2024-03-08T05:41:54;25.13;;;11.30;;
70132;SDS011;57495;49.922;7.966;2024-03-08T05:43:56;27.55;;;11.82;;
70132;SDS011;57495;49.922;7.966;2024-03-08T05:45:57;28.30;;;13.05;;
70132;SDS011;57495;49.922;7.966;2024-03-08T05:47:59;30.80;;;13.57;;
70132;SDS011;57495;49.922;7.966;2024-03-08T05:49:59;26.40;;;12.33;;
70132;SDS011;57495;49.922;7.966;2024-03-08T05:52:02;27.17;;;12.52;;
70132;SDS011;57495;49.922;7.966;2024-03-08T05:54:05;25.10;;;11.23;;
70132;SDS011;57495;49.922;7.966;2024-03-08T05:56:07;23.67;;;11.32;;
70132;SDS011;57495;49.922;7.966;2024-03-08T05:58:09;26.67;;;12.75;;
70132;SDS011;57495;49.922;7.966;2024-03-08T06:00:11;29.08;;;12.07;;
70132;SDS011;57495;49.922;7.966;2024-03-08T06:02:15;28.77;;;13.18;;
70132;SDS011;57495;49.922;7.966;2024-03-08T06:04:19;26.10;;;12.23;;
70132;SDS011;57495;49.922;7.966;2024-03-08T06:06:20;24.75;;;12.57;;
70132;SDS011;57495;49.922;7.966;2024-03-08T06:08:23;27.63;;;13.43;;
70132;SDS011;57495;49.922;7.966;2024-03-08T06:10:29;26.33;;;13.88;;
70132;SDS011;57495;49.922;7.966;2024-03-08T06:12:32;24.63;;;11.68;;
70132;SDS011;57495;49.922;7.966;2024-03-08T06:14:38;26.30;;;11.10;;
70132;SDS011;57495;49.922;7.966;2024-03-08T06:16:40;31.20;;;13.15;;
70132;SDS011;57495;49.922;7.966;2024-03-08T06:18:41;26.95;;;12.98;;
70132;SDS011;57495;49.922;7.966;2024-03-08T06:20:43;26.05;;;12.20;;
70132;SDS011;57495;49.922;7.966;2024-03-08T06:22:45;27.60;;;12.05;;
70132;SDS011;57495;49.922;7.966;2024-03-08T06:24:47;27.37;;;13.67;;
70132;SDS011;57495;49.922;7.966;2024-03-08T06:26:48;27.77;;;13.13;;
70132;SDS011;57495;49.922;7.966;2024-03-08T06:28:50;24.27;;;11.33;;
70132;SDS011;57495;49.922;7.966;2024-03-08T06:30:51;27.73;;;11.75;;
70132;SDS011;57495;49.922;7.966;2024-03-08T06:32:53;23.65;;;11.80;;
70132;SDS011;57495;49.922;7.966;2024-03-08T06:34:55;27.27;;;12.05;;
70132;SDS011;57495;49.922;7.966;2024-03-08T06:36:55;28.87;;;13.40;;
70132;SDS011;57495;49.922;7.966;2024-03-08T06:39:00;27.83;;;13.52;;
70132;SDS011;57495;49.922;7.966;2024-03-08T06:41:10;27.50;;;13.52;;
70132;SDS011;57495;49.922;7.966;2024-03-08T06:43:15;27.47;;;11.47;;
70132;SDS011;57495;49.922;7.966;2024-03-08T06:45:17;27.38;;;12.32;;
70132;SDS011;57495;49.922;7.966;2024-03-08T06:47:21;23.67;;;12.15;;
70132;SDS011;57495;49.922;7.966;2024-03-08T06:49:22;24.27;;;12.93;;
70132;SDS011;57495;49.922;7.966;2024-03-08T06:51:24;27.20;;;13.25;;
70132;SDS011;57495;49.922;7.966;2024-03-08T06:53:25;26.13;;;12.57;;
70132;SDS011;57495;49.922;7.966;2024-03-08T06:55:27;27.33;;;12.98;;
70132;SDS011;57495;49.922;7.966;2024-03-08T06:57:28;27.67;;;12.80;;
70132;SDS011;57495;49.922;7.966;2024-03-08T06:59:30;27.42;;;11.70;;
70132;SDS011;57495;49.922;7.966;2024-03-08T07:01:32;29.60;;;13.07;;
70132;SDS011;57495;49.922;7.966;2024-03-08T07:03:36;25.25;;;12.18;;
70132;SDS011;57495;49.922;7.966;2024-03-08T07:05:38;26.48;;;13.15;;
70132;SDS011;57495;49.922;7.966;2024-03-08T07:07:40;28.30;;;13.60;;
70132;SDS011;57495;49.922;7.966;2024-03-08T07:09:44;25.98;;;12.13;;
70132;SDS011;57495;49.922;7.966;2024-03-08T07:11:46;28.02;;;12.57;;
70132;SDS011;57495;49.922;7.966;2024-03-08T07:13:52;29.80;;;12.95;;
70132;SDS011;57495;49.922;7.966;2024-03-08T07:15:54;26.55;;;13.20;;
70132;SDS011;57495;49.922;7.966;2024-03-08T07:17:55;27.30;;;13.03;;
70132;SDS011;57495;49.922;7.966;2024-03-08T07:19:57;26.63;;;12.73;;
70132;SDS011;57495;49.922;7.966;2024-03-08T07:21:59;27.65;;;13.43;;
70132;SDS011;57495;49.922;7.966;2024-03-08T07:24:03;30.50;;;12.90;;
70132;SDS011;57495;49.922;7.966;2024-03-08T07:26:21;28.25;;;13.75;;
70132;SDS011;57495;49.922;7.966;2024-03-08T07:28:23;25.00;;;12.53;;
70132;SDS011;57495;49.922;7.966;2024-03-08T07:30:26;25.20;;;13.80;;
70132;SDS011;57495;49.922;7.966;2024-03-08T07:32:45;25.45;;;12.52;;
70132;SDS011;57495;49.922;7.966;2024-03-08T07:34:47;28.38;;;13.57;;
70132;SDS011;57495;49.922;7.966;2024-03-08T07:36:50;29.23;;;13.13;;
70132;SDS011;57495;49.922;7.966;2024-03-08T07:38:52;24.07;;;12.30;;
70132;SDS011;57495;49.922;7.966;2024-03-08T07:40:53;27.38;;;13.20;;
70132;SDS011;57495;49.922;7.966;2024-03-08T07:42:57;29.70;;;13.57;;
70132;SDS011;57495;49.922;7.966;2024-03-08T07:44:59;25.00;;;12.98;;
70132;SDS011;57495;49.922;7.966;2024-03-08T07:47:01;26.75;;;13.13;;
70132;SDS011;57495;49.922;7.966;2024-03-08T07:49:03;26.33;;;12.73;;
70132;SDS011;57495;49.922;7.966;2024-03-08T07:51:04;27.27;;;13.80;;
70132;SDS011;57495;49.922;7.966;2024-03-08T07:53:05;27.20;;;13.07;;
70132;SDS011;57495;49.922;7.966;2024-03-08T07:55:07;27.25;;;13.40;;
70132;SDS011;57495;49.922;7.966;2024-03-08T07:57:10;28.55;;;13.90;;
70132;SDS011;57495;49.922;7.966;2024-03-08T07:59:11;25.92;;;13.30;;
70132;SDS011;57495;49.922;7.966;2024-03-08T08:01:15;24.90;;;13.15;;
70132;SDS011;57495;49.922;7.966;2024-03-08T08:03:17;27.52;;;13.05;;
70132;SDS011;57495;49.922;7.966;2024-03-08T08:05:20;26.23;;;12.48;;
70132;SDS011;57495;49.922;7.966;2024-03-08T08:07:22;24.85;;;13.23;;
70132;SDS011;57495;49.922;7.966;2024-03-08T08:09:23;26.77;;;13.48;;
70132;SDS011;57495;49.922;7.966;2024-03-08T08:11:34;27.77;;;13.67;;
70132;SDS011;57495;49.922;7.966;2024-03-08T08:13:35;26.90;;;12.75;;
70132;SDS011;57495;49.922;7.966;2024-03-08T08:15:37;24.50;;;13.40;;
70132;SDS011;57495;49.922;7.966;2024-03-08T08:17:38;24.35;;;13.05;;
70132;SDS011;57495;49.922;7.966;2024-03-08T08:19:41;26.23;;;14.50;;
70132;SDS011;57495;49.922;7.966;2024-03-08T08:21:43;27.42;;;14.20;;
70132;SDS011;57495;49.922;7.966;2024-03-08T08:23:43;24.33;;;12.57;;
70132;SDS011;57495;49.922;7.966;2024-03-08T08:25:45;24.05;;;13.27;;
70132;SDS011;57495;49.922;7.966;2024-03-08T08:27:46;25.73;;;13.55;;
70132;SDS011;57495;49.922;7.966;2024-03-08T08:29:46;24.60;;;12.07;;
70132;SDS011;57495;49.922;7.966;2024-03-08T08:31:49;26.63;;;12.60;;
70132;SDS011;57495;49.922;7.966;2024-03-08T08:33:51;28.27;;;13.37;;
70132;SDS011;57495;49.922;7.966;2024-03-08T08:35:57;25.80;;;12.98;;
70132;SDS011;57495;49.922;7.966;2024-03-08T08:37:58;28.60;;;13.40;;
70132;SDS011;57495;49.922;7.966;2024-03-08T08:40:00;25.52;;;12.95;;
70132;SDS011;57495;49.922;7.966;2024-03-08T08:42:10;27.17;;;13.55;;
70132;SDS011;57495;49.922;7.966;2024-03-08T08:44:12;25.20;;;12.03;;
70132;SDS011;57495;49.922;7.966;2024-03-08T08:46:16;24.13;;;12.00;;
70132;SDS011;57495;49.922;7.966;2024-03-08T08:48:18;24.33;;;12.85;;
70132;SDS011;57495;49.922;7.966;2024-03-08T08:50:19;24.35;;;12.70;;
70132;SDS011;57495;49.922;7.966;2024-03-08T08:52:24;27.83;;;14.05;;
70132;SDS011;57495;49.922;7.966;2024-03-08T08:54:25;23.60;;;12.73;;
70132;SDS011;57495;49.922;7.966;2024-03-08T08:56:27;28.67;;;13.93;;
70132;SDS011;57495;49.922;7.966;2024-03-08T08:58:28;25.10;;;13.40;;
70132;SDS011;57495;49.922;7.966;2024-03-08T09:00:30;23.45;;;13.10;;
70132;SDS011;57495;49.922;7.966;2024-03-08T09:02:31;25.05;;;13.82;;
70132;SDS011;57495;49.922;7.966;2024-03-08T09:04:33;25.23;;;12.90;;
70132;SDS011;57495;49.922;7.966;2024-03-08T09:06:35;25.17;;;13.13;;
70132;SDS011;57495;49.922;7.966;2024-03-08T09:08:38;23.75;;;12.55;;
70132;SDS011;57495;49.922;7.966;2024-03-08T09:10:39;23.13;;;12.27;;
70132;SDS011;57495;49.922;7.966;2024-03-08T09:12:41;24.15;;;12.15;;
70132;SDS011;57495;49.922;7.966;2024-03-08T09:14:41;22.10;;;11.30;;
70132;SDS011;57495;49.922;7.966;2024-03-08T09:16:43;22.58;;;12.15;;
70132;SDS011;57495;49.922;7.966;2024-03-08T09:18:44;25.65;;;12.45;;
70132;SDS011;57495;49.922;7.966;2024-03-08T09:20:46;24.13;;;12.35;;
70132;SDS011;57495;49.922;7.966;2024-03-08T09:22:48;22.63;;;12.05;;
70132;SDS011;57495;49.922;7.966;2024-03-08T09:24:50;24.85;;;12.98;;
70132;SDS011;57495;49.922;7.966;2024-03-08T09:26:52;22.13;;;11.68;;
70132;SDS011;57495;49.922;7.966;2024-03-08T09:28:53;21.75;;;12.73;;
70132;SDS011;57495;49.922;7.966;2024-03-08T09:30:55;22.05;;;12.07;;
70132;SDS011;57495;49.922;7.966;2024-03-08T09:32:58;20.95;;;11.43;;
70132;SDS011;57495;49.922;7.966;2024-03-08T09:35:00;22.65;;;12.45;;
70132;SDS011;57495;49.922;7.966;2024-03-08T09:37:01;21.48;;;12.00;;
70132;SDS011;57495;49.922;7.966;2024-03-08T09:39:04;22.30;;;11.65;;
70132;SDS011;57495;49.922;7.966;2024-03-08T09:41:08;24.17;;;11.90;;
70132;SDS011;57495;49.922;7.966;2024-03-08T09:43:12;21.60;;;12.32;;
70132;SDS011;57495;49.922;7.966;2024-03-08T09:45:13;23.00;;;11.40;;
70132;SDS011;57495;49.922;7.966;2024-03-08T09:47:15;20.88;;;11.77;;
70132;SDS011;57495;49.922;7.966;2024-03-08T09:49:18;20.13;;;11.68;;
70132;SDS011;57495;49.922;7.966;2024-03-08T09:51:21;23.17;;;11.80;;
70132;SDS011;57495;49.922;7.966;2024-03-08T09:53:23;19.52;;;10.95;;
70132;SDS011;57495;49.922;7.966;2024-03-08T09:55:25;20.80;;;11.60;;
70132;SDS011;57495;49.922;7.966;2024-03-08T09:57:33;21.38;;;12.27;;
70132;SDS011;57495;49.922;7.966;2024-03-08T09:59:37;19.40;;;10.73;;
70132;SDS011;57495;49.922;7.966;2024-03-08T10:01:48;21.20;;;11.65;;
70132;SDS011;57495;49.922;7.966;2024-03-08T10:03:49;19.63;;;11.38;;
70132;SDS011;57495;49.922;7.966;2024-03-08T10:05:50;21.88;;;12.23;;
70132;SDS011;57495;49.922;7.966;2024-03-08T10:07:51;20.57;;;11.70;;
70132;SDS011;57495;49.922;7.966;2024-03-08T10:09:53;20.20;;;12.10;;
70132;SDS011;57495;49.922;7.966;2024-03-08T10:11:55;20.20;;;11.30;;
70132;SDS011;57495;49.922;7.966;2024-03-08T10:13:59;22.92;;;12.18;;
70132;SDS011;57495;49.922;7.966;2024-03-08T10:16:01;22.38;;;11.30;;
70132;SDS011;57495;49.922;7.966;2024-03-08T10:18:03;23.05;;;11.75;;
70132;SDS011;57495;49.922;7.966;2024-03-08T10:20:04;20.00;;;12.50;;
70132;SDS011;57495;49.922;7.966;2024-03-08T10:22:15;20.45;;;11.60;;
70132;SDS011;57495;49.922;7.966;2024-03-08T10:24:17;20.77;;;11.85;;
70132;SDS011;57495;49.922;7.966;2024-03-08T10:26:18;20.63;;;11.63;;
70132;SDS011;57495;49.922;7.966;2024-03-08T10:28:22;19.48;;;11.25;;
70132;SDS011;57495;49.922;7.966;2024-03-08T10:30:26;17.88;;;10.90;;
70132;SDS011;57495;49.922;7.966;2024-03-08T10:32:27;18.50;;;10.73;;
70132;SDS011;57495;49.922;7.966;2024-03-08T10:34:29;20.17;;;11.05;;
70132;SDS011;57495;49.922;7.966;2024-03-08T10:36:30;19.25;;;10.73;;
70132;SDS011;57495;49.922;7.966;2024-03-08T10:38:35;20.25;;;11.23;;
70132;SDS011;57495;49.922;7.966;2024-03-08T10:40:39;20.58;;;11.40;;
70132;SDS011;57495;49.922;7.966;2024-03-08T10:42:44;18.67;;;11.00;;
70132;SDS011;57495;49.922;7.966;2024-03-08T10:44:53;20.73;;;11.10;;
70132;SDS011;57495;49.922;7.966;2024-03-08T10:47:07;19.30;;;10.73;;
70132;SDS011;57495;49.922;7.966;2024-03-08T10:49:16;21.08;;;11.38;;
70132;SDS011;57495;49.922;7.966;2024-03-08T10:51:18;19.20;;;10.68;;
70132;SDS011;57495;49.922;7.966;2024-03-08T10:53:20;18.42;;;10.30;;
70132;SDS011;57495;49.922;7.966;2024-03-08T10:55:24;19.17;;;10.35;;
70132;SDS011;57495;49.922;7.966;2024-03-08T10:57:26;17.58;;;10.65;;
70132;SDS011;57495;49.922;7.966;2024-03-08T10:59:28;19.42;;;11.00;;
70132;SDS011;57495;49.922;7.966;2024-03-08T11:01:31;19.33;;;11.25;;
70132;SDS011;57495;49.922;7.966;2024-03-08T11:03:44;19.27;;;11.23;;
70132;SDS011;57495;49.922;7.966;2024-03-08T11:05:48;20.40;;;11.73;;
70132;SDS011;57495;49.922;7.966;2024-03-08T11:07:50;20.48;;;12.10;;
70132;SDS011;57495;49.922;7.966;2024-03-08T11:09:51;19.88;;;11.30;;
70132;SDS011;57495;49.922;7.966;2024-03-08T11:11:56;18.17;;;10.93;;
70132;SDS011;57495;49.922;7.966;2024-03-08T11:14:45;18.58;;;10.23;;
70132;SDS011;57495;49.922;7.966;2024-03-08T11:16:48;18.00;;;10.43;;
70132;SDS011;57495;49.922;7.966;2024-03-08T11:18:52;16.02;;;9.00;;
70132;SDS011;57495;49.922;7.966;2024-03-08T11:20:53;19.60;;;11.70;;
70132;SDS011;57495;49.922;7.966;2024-03-08T11:22:56;19.38;;;11.40;;
70132;SDS011;57495;49.922;7.966;2024-03-08T11:25:02;20.23;;;11.55;;
70132;SDS011;57495;49.922;7.966;2024-03-08T11:27:09;16.80;;;10.05;;
70132;SDS011;57495;49.922;7.966;2024-03-08T11:31:37;18.40;;;11.23;;
70132;SDS011;57495;49.922;7.966;2024-03-08T11:33:40;20.23;;;12.25;;
70132;SDS011;57495;49.922;7.966;2024-03-08T11:35:45;18.10;;;10.98;;
70132;SDS011;57495;49.922;7.966;2024-03-08T11:37:46;18.65;;;11.52;;
70132;SDS011;57495;49.922;7.966;2024-03-08T11:39:48;23.90;;;11.73;;
70132;SDS011;57495;49.922;7.966;2024-03-08T11:41:50;19.48;;;10.90;;
70132;SDS011;57495;49.922;7.966;2024-03-08T11:44:01;18.38;;;11.50;;
70132;SDS011;57495;49.922;7.966;2024-03-08T11:46:09;19.48;;;10.32;;
70132;SDS011;57495;49.922;7.966;2024-03-08T11:48:12;18.63;;;10.40;;
70132;SDS011;57495;49.922;7.966;2024-03-08T11:50:15;21.20;;;11.82;;
70132;SDS011;57495;49.922;7.966;2024-03-08T11:52:20;19.27;;;11.43;;
70132;SDS011;57495;49.922;7.966;2024-03-08T11:54:21;18.85;;;10.98;;
70132;SDS011;57495;49.922;7.966;2024-03-08T11:56:23;19.63;;;11.35;;
70132;SDS011;57495;49.922;7.966;2024-03-08T11:58:24;19.13;;;11.48;;
70132;SDS011;57495;49.922;7.966;2024-03-08T12:00:28;18.60;;;10.93;;